createdAt,value
2023-04-22T00:00:19.526Z,1.99
2023-04-22T00:01:19.507Z,2.07
2023-04-22T00:02:19.586Z,2.04
2023-04-22T00:03:19.585Z,2.01
2023-04-22T00:04:19.713Z,2.05
2023-04-22T00:05:20.687Z,2.04
2023-04-22T00:06:19.340Z,2.05
2023-04-22T00:07:19.290Z,2.02
2023-04-22T00:08:19.292Z,2.00
2023-04-22T00:09:19.269Z,2.03
2023-04-22T00:10:19.291Z,1.99
2023-04-22T00:11:19.261Z,2.00
2023-04-22T00:12:19.266Z,1.99
2023-04-22T00:13:19.262Z,1.97
2023-04-22T00:14:19.247Z,2.05
2023-04-22T00:15:19.238Z,2.00
2023-04-22T00:16:19.275Z,1.98
2023-04-22T00:17:19.226Z,1.98
2023-04-22T00:18:19.173Z,1.99
2023-04-22T00:19:19.142Z,1.99
2023-04-22T00:20:19.095Z,1.97
2023-04-22T00:21:19.049Z,1.97
2023-04-22T00:22:19.044Z,1.99
2023-04-22T00:23:18.977Z,1.98
2023-04-22T00:24:18.971Z,2.01
2023-04-22T00:25:18.939Z,1.98
2023-04-22T00:26:18.881Z,1.95
2023-04-22T00:27:18.850Z,1.98
2023-04-22T00:28:18.813Z,1.94
2023-04-22T00:29:18.775Z,1.98
2023-04-22T00:30:18.753Z,2.01
2023-04-22T00:31:18.733Z,1.95
2023-04-22T00:32:18.655Z,1.98
2023-04-22T00:33:18.648Z,1.98
2023-04-22T00:34:18.599Z,1.96
2023-04-22T00:35:18.596Z,1.95
2023-04-22T00:36:18.592Z,1.92
2023-04-22T00:37:18.567Z,1.92
2023-04-22T00:38:18.519Z,1.92
2023-04-22T00:39:18.485Z,1.94
2023-04-22T00:40:18.447Z,1.96
2023-04-22T00:41:18.414Z,1.92
2023-04-22T00:42:18.385Z,1.96
2023-04-22T00:43:18.345Z,1.96
2023-04-22T00:44:18.305Z,1.96
2023-04-22T00:45:18.270Z,1.97
2023-04-22T00:46:18.277Z,1.97
2023-04-22T00:47:18.218Z,1.96
2023-04-22T00:48:18.178Z,1.99
2023-04-22T00:49:18.133Z,1.94
2023-04-22T00:50:18.132Z,1.99
2023-04-22T00:51:18.070Z,1.96
2023-04-22T00:52:18.048Z,1.94
2023-04-22T00:53:18.004Z,1.95
2023-04-22T00:54:17.967Z,1.96
2023-04-22T00:55:17.937Z,1.92
2023-04-22T00:56:17.914Z,1.94
2023-04-22T00:57:17.880Z,1.92
2023-04-22T00:58:17.849Z,1.90
2023-04-22T00:59:17.819Z,1.93
2023-04-22T01:00:17.782Z,1.92
2023-04-22T01:01:17.848Z,1.91
2023-04-22T01:02:17.814Z,1.92
2023-04-22T01:03:17.944Z,1.89
2023-04-22T01:04:17.852Z,1.90
2023-04-22T01:05:17.696Z,1.90
2023-04-22T01:06:17.670Z,1.90
2023-04-22T01:07:17.633Z,1.90
2023-04-22T01:08:17.631Z,1.86
2023-04-22T01:09:17.600Z,1.89
2023-04-22T01:10:17.569Z,1.89
2023-04-22T01:11:17.535Z,1.87
2023-04-22T01:12:17.501Z,1.87
2023-04-22T01:13:17.456Z,1.85
2023-04-22T01:14:17.428Z,1.85
2023-04-22T01:15:17.385Z,1.82
2023-04-22T01:16:17.393Z,1.82
2023-04-22T01:17:17.345Z,1.83
2023-04-22T01:18:17.316Z,1.85
2023-04-22T01:19:17.262Z,1.83
2023-04-22T01:20:17.251Z,1.85
2023-04-22T01:21:17.227Z,1.81
2023-04-22T01:22:17.212Z,1.85
2023-04-22T01:23:17.208Z,1.85
2023-04-22T01:24:17.217Z,1.84
2023-04-22T01:25:17.218Z,1.79
2023-04-22T01:26:17.220Z,1.79
2023-04-22T01:27:17.221Z,1.80
2023-04-22T01:28:17.391Z,1.79
2023-04-22T01:29:17.245Z,1.79
2023-04-22T01:30:17.230Z,1.81
2023-04-22T01:31:17.220Z,1.80
2023-04-22T01:32:17.343Z,1.76
2023-04-22T01:33:17.423Z,1.77
2023-04-22T01:34:17.227Z,1.77
2023-04-22T01:35:17.224Z,1.77
2023-04-22T01:36:17.335Z,1.80
2023-04-22T01:37:17.243Z,1.76
2023-04-22T01:38:17.230Z,1.77
2023-04-22T01:39:17.238Z,1.75
2023-04-22T01:40:17.241Z,1.77
2023-04-22T01:41:17.251Z,1.75
2023-04-22T01:42:17.237Z,1.78
2023-04-22T01:43:17.243Z,1.80
2023-04-22T01:44:17.240Z,1.74
2023-04-22T01:45:17.259Z,1.76
2023-04-22T01:46:17.303Z,1.72
2023-04-22T01:47:17.255Z,1.75
2023-04-22T01:48:17.347Z,1.74
2023-04-22T01:49:17.260Z,1.74
2023-04-22T01:50:17.262Z,1.77
2023-04-22T01:51:17.267Z,1.74
2023-04-22T01:52:17.266Z,1.75
2023-04-22T01:53:17.274Z,1.72
2023-04-22T01:54:17.258Z,1.72
2023-04-22T01:55:17.214Z,1.72
2023-04-22T01:56:17.173Z,1.74
2023-04-22T01:57:17.309Z,1.74
2023-04-22T01:58:17.091Z,1.73
2023-04-22T01:59:17.061Z,1.75
2023-04-22T02:00:17.026Z,1.76
2023-04-22T02:01:17.018Z,1.70
2023-04-22T02:02:17.041Z,1.71
2023-04-22T02:03:16.977Z,1.76
2023-04-22T02:04:16.918Z,1.69
2023-04-22T02:05:16.885Z,1.71
2023-04-22T02:06:16.813Z,1.72
2023-04-22T02:07:16.783Z,1.72
2023-04-22T02:08:16.781Z,1.72
2023-04-22T02:09:16.785Z,1.72
2023-04-22T02:10:16.802Z,1.69
2023-04-22T02:11:16.797Z,1.68
2023-04-22T02:12:16.786Z,1.70
2023-04-22T02:13:16.791Z,1.70
2023-04-22T02:14:16.774Z,1.69
2023-04-22T02:15:16.799Z,1.66
2023-04-22T02:16:16.835Z,1.67
2023-04-22T02:17:16.782Z,1.69
2023-04-22T02:18:16.778Z,1.67
2023-04-22T02:19:16.785Z,1.67
2023-04-22T02:20:16.852Z,1.68
2023-04-22T02:21:16.796Z,1.70
2023-04-22T02:22:16.803Z,1.68
2023-04-22T02:23:16.800Z,1.67
2023-04-22T02:24:16.797Z,1.66
2023-04-22T02:25:16.804Z,1.63
2023-04-22T02:26:16.796Z,1.63
2023-04-22T02:27:16.954Z,1.63
2023-04-22T02:28:16.799Z,1.61
2023-04-22T02:29:16.803Z,1.63
2023-04-22T02:30:16.822Z,1.61
2023-04-22T02:31:16.899Z,1.64
2023-04-22T02:32:16.818Z,1.62
2023-04-22T02:33:16.836Z,1.65
2023-04-22T02:34:16.903Z,1.60
2023-04-22T02:35:16.849Z,1.65
2023-04-22T02:36:16.852Z,1.59
2023-04-22T02:37:16.853Z,1.61
2023-04-22T02:38:16.871Z,1.62
2023-04-22T02:39:16.864Z,1.62
2023-04-22T02:40:16.880Z,1.59
2023-04-22T02:41:16.890Z,1.59
2023-04-22T02:42:16.900Z,1.60
2023-04-22T02:43:16.990Z,1.60
2023-04-22T02:44:16.901Z,1.59
2023-04-22T02:45:16.910Z,1.58
2023-04-22T02:46:16.967Z,1.57
2023-04-22T02:47:16.934Z,1.60
2023-04-22T02:48:16.932Z,1.59
2023-04-22T02:49:16.952Z,1.58
2023-04-22T02:50:16.964Z,1.56
2023-04-22T02:51:16.978Z,1.57
2023-04-22T02:52:16.996Z,1.54
2023-04-22T02:53:17.007Z,1.57
2023-04-22T02:54:16.995Z,1.51
2023-04-22T02:55:17.013Z,1.55
2023-04-22T02:56:17.019Z,1.55
2023-04-22T02:57:17.181Z,1.54
2023-04-22T02:58:17.036Z,1.54
2023-04-22T02:59:17.048Z,1.52
2023-04-22T03:00:17.072Z,1.55
2023-04-22T03:01:17.155Z,1.50
2023-04-22T03:02:17.153Z,1.53
2023-04-22T03:03:17.347Z,1.49
2023-04-22T03:04:17.341Z,1.51
2023-04-22T03:05:17.133Z,1.50
2023-04-22T03:06:17.134Z,1.51
2023-04-22T03:07:17.142Z,1.50
2023-04-22T03:08:17.152Z,1.47
2023-04-22T03:09:17.165Z,1.50
2023-04-22T03:10:17.186Z,1.49
2023-04-22T03:11:17.188Z,1.49
2023-04-22T03:12:17.202Z,1.48
2023-04-22T03:13:17.205Z,1.50
2023-04-22T03:14:17.215Z,1.47
2023-04-22T03:15:20.544Z,1.45
2023-04-22T03:16:17.216Z,1.46
2023-04-22T03:17:17.157Z,1.46
2023-04-22T03:18:17.138Z,1.47
2023-04-22T03:19:17.215Z,1.49
2023-04-22T03:20:17.083Z,1.52
2023-04-22T03:21:17.028Z,1.47
2023-04-22T03:22:16.999Z,1.47
2023-04-22T03:23:16.955Z,1.50
2023-04-22T03:24:16.925Z,1.48
2023-04-22T03:25:16.896Z,1.48
2023-04-22T03:26:17.012Z,1.48
2023-04-22T03:27:16.825Z,1.48
2023-04-22T03:28:16.778Z,1.47
2023-04-22T03:29:16.745Z,1.45
2023-04-22T03:30:16.723Z,1.40
2023-04-22T03:31:16.685Z,1.44
2023-04-22T03:32:16.689Z,1.47
2023-04-22T03:33:16.735Z,1.44
2023-04-22T03:34:16.587Z,1.46
2023-04-22T03:35:16.562Z,1.43
2023-04-22T03:36:16.527Z,1.42
2023-04-22T03:37:16.506Z,1.44
2023-04-22T03:38:16.448Z,1.43
2023-04-22T03:39:16.413Z,1.46
2023-04-22T03:40:16.378Z,1.43
2023-04-22T03:41:16.362Z,1.44
2023-04-22T03:42:16.306Z,1.41
2023-04-22T03:43:16.287Z,1.41
2023-04-22T03:44:16.246Z,1.45
2023-04-22T03:45:16.216Z,1.39
2023-04-22T03:46:16.255Z,1.43
2023-04-22T03:47:16.225Z,1.43
2023-04-22T03:48:16.234Z,1.43
2023-04-22T03:49:16.245Z,1.38
2023-04-22T03:50:16.251Z,1.42
2023-04-22T03:51:16.285Z,1.41
2023-04-22T03:52:16.271Z,1.40
2023-04-22T03:53:16.289Z,1.41
2023-04-22T03:54:16.295Z,1.38
2023-04-22T03:55:16.320Z,1.42
2023-04-22T03:56:16.487Z,1.38
2023-04-22T03:57:16.320Z,1.39
2023-04-22T03:58:16.332Z,1.39
2023-04-22T03:59:16.333Z,1.37
2023-04-22T04:00:16.345Z,1.36
2023-04-22T04:01:16.363Z,1.38
2023-04-22T04:02:16.510Z,1.37
2023-04-22T04:03:16.503Z,1.37
2023-04-22T04:04:16.598Z,1.36
2023-04-22T04:05:16.611Z,1.33
2023-04-22T04:06:16.423Z,1.36
2023-04-22T04:07:16.424Z,1.35
2023-04-22T04:08:16.436Z,1.34
2023-04-22T04:09:16.440Z,1.37
2023-04-22T04:10:16.451Z,1.38
2023-04-22T04:11:16.465Z,1.34
2023-04-22T04:12:16.475Z,1.33
2023-04-22T04:13:16.476Z,1.31
2023-04-22T04:14:16.502Z,1.35
2023-04-22T04:15:16.498Z,1.34
2023-04-22T04:16:16.547Z,1.35
2023-04-22T04:17:16.516Z,1.32
2023-04-22T04:18:16.537Z,1.33
2023-04-22T04:19:16.541Z,1.35
2023-04-22T04:20:16.539Z,1.33
2023-04-22T04:21:16.552Z,1.34
2023-04-22T04:22:16.587Z,1.34
2023-04-22T04:23:16.568Z,1.31
2023-04-22T04:24:16.570Z,1.32
2023-04-22T04:25:16.584Z,1.30
2023-04-22T04:26:16.665Z,1.34
2023-04-22T04:27:16.598Z,1.31
2023-04-22T04:28:16.602Z,1.30
2023-04-22T04:29:16.623Z,1.30
2023-04-22T04:30:16.629Z,1.31
2023-04-22T04:31:16.744Z,1.31
2023-04-22T04:32:16.646Z,1.30
2023-04-22T04:33:16.702Z,1.30
2023-04-22T04:34:16.664Z,1.29
2023-04-22T04:35:16.685Z,1.29
2023-04-22T04:36:16.681Z,1.27
2023-04-22T04:37:16.701Z,1.28
2023-04-22T04:38:16.703Z,1.31
2023-04-22T04:39:16.717Z,1.26
2023-04-22T04:40:16.717Z,1.29
2023-04-22T04:41:16.731Z,1.28
2023-04-22T04:42:16.729Z,1.28
2023-04-22T04:43:16.751Z,1.26
2023-04-22T04:44:16.765Z,1.26
2023-04-22T04:45:16.803Z,1.28
2023-04-22T04:46:16.851Z,1.29
2023-04-22T04:47:16.815Z,1.26
2023-04-22T04:48:16.877Z,1.27
2023-04-22T04:49:16.825Z,1.28
2023-04-22T04:50:16.830Z,1.26
2023-04-22T04:51:18.256Z,1.24
2023-04-22T04:52:16.820Z,1.26
2023-04-22T04:53:16.767Z,1.24
2023-04-22T04:54:16.780Z,1.21
2023-04-22T04:55:16.719Z,1.27
2023-04-22T04:56:16.667Z,1.24
2023-04-22T04:57:16.634Z,1.26
2023-04-22T04:58:16.620Z,1.24
2023-04-22T04:59:16.563Z,1.22
2023-04-22T05:00:16.547Z,1.23
2023-04-22T05:01:16.562Z,1.22
2023-04-22T05:02:16.531Z,1.24
2023-04-22T05:03:16.650Z,1.23
2023-04-22T05:04:16.787Z,1.21
2023-04-22T05:05:16.360Z,1.20
2023-04-22T05:06:16.330Z,1.18
2023-04-22T05:07:16.283Z,1.21
2023-04-22T05:08:16.244Z,1.22
2023-04-22T05:09:16.212Z,1.21
2023-04-22T05:10:16.176Z,1.19
2023-04-22T05:11:16.132Z,1.18
2023-04-22T05:12:16.098Z,1.19
2023-04-22T05:13:16.073Z,1.20
2023-04-22T05:14:16.043Z,1.18
2023-04-22T05:15:16.000Z,1.18
2023-04-22T05:16:16.008Z,1.21
2023-04-22T05:17:15.953Z,1.18
2023-04-22T05:18:15.924Z,1.16
2023-04-22T05:19:15.885Z,1.18
2023-04-22T05:20:15.834Z,1.18
2023-04-22T05:21:15.808Z,1.19
2023-04-22T05:22:15.779Z,1.17
2023-04-22T05:23:15.739Z,1.17
2023-04-22T05:24:15.705Z,1.16
2023-04-22T05:25:15.677Z,1.17
2023-04-22T05:26:15.645Z,1.17
2023-04-22T05:27:15.607Z,1.17
2023-04-22T05:28:15.566Z,1.15
2023-04-22T05:29:15.548Z,1.14
2023-04-22T05:30:15.510Z,1.14
2023-04-22T05:31:15.483Z,1.14
2023-04-22T05:32:15.559Z,1.14
2023-04-22T05:33:15.475Z,1.14
2023-04-22T05:34:15.377Z,1.14
2023-04-22T05:35:15.360Z,1.15
2023-04-22T05:36:15.336Z,1.11
2023-04-22T05:37:15.289Z,1.13
2023-04-22T05:38:15.244Z,1.15
2023-04-22T05:39:15.229Z,1.13
2023-04-22T05:40:15.189Z,1.12
2023-04-22T05:41:15.158Z,1.11
2023-04-22T05:42:15.137Z,1.13
2023-04-22T05:43:15.090Z,1.12
2023-04-22T05:44:15.064Z,1.09
2023-04-22T05:45:15.043Z,1.10
2023-04-22T05:46:15.058Z,1.11
2023-04-22T05:47:14.981Z,1.07
2023-04-22T05:48:14.990Z,1.09
2023-04-22T05:49:14.993Z,1.09
2023-04-22T05:50:14.988Z,1.09
2023-04-22T05:51:14.990Z,1.07
2023-04-22T05:52:14.993Z,1.10
2023-04-22T05:53:14.971Z,1.07
2023-04-22T05:54:15.003Z,1.06
2023-04-22T05:55:14.976Z,1.05
2023-04-22T05:56:15.000Z,1.04
2023-04-22T05:57:14.972Z,1.04
2023-04-22T05:58:14.970Z,1.03
2023-04-22T05:59:14.970Z,1.02
2023-04-22T06:00:14.984Z,1.05
2023-04-22T06:01:14.977Z,1.03
2023-04-22T06:02:15.014Z,1.01
2023-04-22T06:03:15.138Z,1.00
2023-04-22T06:04:15.194Z,1.01
2023-04-22T06:05:15.026Z,1.02
2023-04-22T06:06:14.978Z,1.01
2023-04-22T06:07:14.987Z,1.00
2023-04-22T06:08:14.958Z,1.01
2023-04-22T06:09:14.954Z,0.99
2023-04-22T06:10:14.955Z,1.00
2023-04-22T06:11:14.961Z,1.00
2023-04-22T06:12:14.957Z,0.96
2023-04-22T06:13:14.956Z,1.00
2023-04-22T06:14:14.961Z,1.00
2023-04-22T06:15:14.956Z,0.97
2023-04-22T06:16:15.014Z,0.98
2023-04-22T06:17:14.953Z,0.98
2023-04-22T06:18:14.957Z,0.97
2023-04-22T06:19:14.953Z,0.97
2023-04-22T06:20:14.955Z,0.98
2023-04-22T06:21:14.948Z,0.97
2023-04-22T06:22:14.940Z,0.95
2023-04-22T06:23:14.934Z,0.98
2023-04-22T06:24:14.946Z,0.96
2023-04-22T06:25:14.905Z,0.96
2023-04-22T06:26:14.873Z,0.96
2023-04-22T06:27:14.842Z,0.94
2023-04-22T06:28:14.811Z,0.95
2023-04-22T06:29:14.779Z,0.94
2023-04-22T06:30:14.758Z,0.94
2023-04-22T06:31:14.792Z,0.96
2023-04-22T06:32:14.708Z,0.92
2023-04-22T06:33:14.765Z,0.93
2023-04-22T06:34:14.654Z,0.91
2023-04-22T06:35:14.620Z,0.91
2023-04-22T06:36:14.592Z,0.92
2023-04-22T06:37:14.559Z,0.94
2023-04-22T06:38:14.541Z,0.92
2023-04-22T06:39:14.509Z,0.91
2023-04-22T06:40:14.496Z,0.91
2023-04-22T06:41:14.450Z,0.91
2023-04-22T06:42:14.408Z,0.89
2023-04-22T06:43:14.392Z,0.89
2023-04-22T06:44:14.361Z,0.87
2023-04-22T06:45:14.333Z,0.87
2023-04-22T06:46:14.333Z,0.84
2023-04-22T06:47:14.298Z,0.83
2023-04-22T06:48:14.270Z,0.85
2023-04-22T06:49:14.282Z,0.85
2023-04-22T06:50:14.249Z,0.84
2023-04-22T06:51:14.199Z,0.82
2023-04-22T06:52:14.185Z,0.79
2023-04-22T06:53:14.157Z,0.79
2023-04-22T06:54:14.128Z,0.78
2023-04-22T06:55:14.086Z,0.76
2023-04-22T06:56:14.069Z,0.78
2023-04-22T06:57:14.038Z,0.76
2023-04-22T06:58:14.020Z,0.76
2023-04-22T06:59:13.989Z,0.76
2023-04-22T07:00:13.965Z,0.75
2023-04-22T07:01:13.937Z,0.73
2023-04-22T07:02:14.019Z,0.73
2023-04-22T07:03:13.957Z,0.73
2023-04-22T07:04:13.888Z,0.74
2023-04-22T07:05:13.827Z,0.72
2023-04-22T07:06:13.816Z,0.71
2023-04-22T07:07:13.768Z,0.72
2023-04-22T07:08:13.759Z,0.73
2023-04-22T07:09:13.733Z,0.73
2023-04-22T07:10:13.695Z,0.72
2023-04-22T07:11:14.553Z,0.72
2023-04-22T07:12:13.707Z,0.72
2023-04-22T07:13:13.610Z,0.72
2023-04-22T07:14:13.571Z,0.68
2023-04-22T07:15:13.546Z,0.68
2023-04-22T07:16:13.554Z,0.69
2023-04-22T07:17:13.502Z,0.69
2023-04-22T07:18:13.463Z,0.69
2023-04-22T07:19:13.440Z,0.72
2023-04-22T07:20:13.405Z,0.69
2023-04-22T07:21:13.387Z,0.66
2023-04-22T07:22:13.345Z,0.66
2023-04-22T07:23:13.322Z,0.65
2023-04-22T07:24:13.273Z,0.66
2023-04-22T07:25:13.263Z,0.66
2023-04-22T07:26:13.214Z,0.66
2023-04-22T07:27:13.174Z,0.66
2023-04-22T07:28:13.138Z,0.66
2023-04-22T07:29:13.095Z,0.64
2023-04-22T07:30:13.081Z,0.66
2023-04-22T07:31:13.040Z,0.66
2023-04-22T07:32:13.028Z,0.67
2023-04-22T07:33:12.968Z,0.66
2023-04-22T07:34:12.935Z,0.69
2023-04-22T07:35:13.558Z,0.69
2023-04-22T07:36:12.885Z,0.71
2023-04-22T07:37:12.820Z,0.68
2023-04-22T07:38:14.531Z,0.68
2023-04-22T07:39:12.747Z,0.68
2023-04-22T07:40:12.785Z,0.69
2023-04-22T07:41:12.684Z,0.70
2023-04-22T07:42:12.660Z,0.71
2023-04-22T07:43:12.625Z,0.73
2023-04-22T07:44:12.584Z,0.71
2023-04-22T07:45:12.553Z,0.68
2023-04-22T07:46:12.615Z,0.66
2023-04-22T07:47:12.744Z,0.65
2023-04-22T07:48:12.449Z,0.67
2023-04-22T07:49:12.416Z,0.67
2023-04-22T07:50:12.383Z,0.68
2023-04-22T07:51:12.346Z,0.66
2023-04-22T07:52:12.331Z,0.66
2023-04-22T07:53:12.285Z,0.67
2023-04-22T07:54:12.266Z,0.65
2023-04-22T07:55:12.221Z,0.66
2023-04-22T07:56:12.190Z,0.65
2023-04-22T07:57:12.154Z,0.66
2023-04-22T07:58:12.131Z,0.68
2023-04-22T07:59:12.091Z,0.69
2023-04-22T08:00:12.071Z,0.68
2023-04-22T08:01:12.055Z,0.68
2023-04-22T08:02:12.046Z,0.68
2023-04-22T08:03:12.162Z,0.69
2023-04-22T08:04:12.232Z,0.69
2023-04-22T08:05:11.966Z,0.67
2023-04-22T08:06:11.880Z,0.69
2023-04-22T08:08:11.804Z,0.70
2023-04-22T08:09:11.769Z,0.69
2023-04-22T08:10:11.741Z,0.69
2023-04-22T08:11:11.684Z,0.69
2023-04-22T08:12:11.647Z,0.69
2023-04-22T08:13:11.610Z,0.70
2023-04-22T08:14:11.591Z,0.70
2023-04-22T08:15:11.545Z,0.70
2023-04-22T08:16:11.536Z,0.70
2023-04-22T08:17:11.475Z,0.71
2023-04-22T08:18:11.442Z,0.70
2023-04-22T08:19:11.392Z,0.69
2023-04-22T08:20:11.356Z,0.69
2023-04-22T08:21:11.313Z,0.70
2023-04-22T08:22:11.276Z,0.70
2023-04-22T08:23:11.244Z,0.69
2023-04-22T08:24:11.227Z,0.69
2023-04-22T08:25:11.175Z,0.70
2023-04-22T08:26:11.148Z,0.71
2023-04-22T08:27:11.122Z,0.72
2023-04-22T08:28:11.086Z,0.72
2023-04-22T08:29:11.048Z,0.72
2023-04-22T08:30:11.021Z,0.72
2023-04-22T08:31:11.001Z,0.74
2023-04-22T08:32:10.960Z,0.71
2023-04-22T08:33:10.920Z,0.71
2023-04-22T08:34:10.895Z,0.71
2023-04-22T08:35:10.861Z,0.72
2023-04-22T08:36:10.834Z,0.70
2023-04-22T08:37:10.798Z,0.70
2023-04-22T08:38:10.794Z,0.72
2023-04-22T08:39:10.758Z,0.71
2023-04-22T08:40:10.732Z,0.74
2023-04-22T08:41:10.711Z,0.71
2023-04-22T08:42:10.662Z,0.72
2023-04-22T08:43:10.640Z,0.72
2023-04-22T08:44:10.661Z,0.73
2023-04-22T08:45:10.567Z,0.72
2023-04-22T08:46:10.588Z,0.71
2023-04-22T08:47:10.611Z,0.72
2023-04-22T08:48:10.472Z,0.72
2023-04-22T08:49:10.438Z,0.72
2023-04-22T08:50:10.409Z,0.71
2023-04-22T08:51:10.369Z,0.73
2023-04-22T08:52:10.409Z,0.72
2023-04-22T08:53:10.382Z,0.74
2023-04-22T08:54:10.318Z,0.72
2023-04-22T08:55:10.370Z,0.72
2023-04-22T08:56:10.336Z,0.73
2023-04-22T08:57:10.318Z,0.75
2023-04-22T08:58:10.312Z,0.73
2023-04-22T08:59:10.337Z,0.73
2023-04-22T09:00:10.421Z,0.73
2023-04-22T09:01:10.388Z,0.72
2023-04-22T09:02:10.410Z,0.72
2023-04-22T09:03:10.414Z,0.73
2023-04-22T09:04:10.406Z,0.74
2023-04-22T09:05:10.400Z,0.73
2023-04-22T09:06:10.332Z,0.73
2023-04-22T09:07:10.208Z,0.73
2023-04-22T09:08:10.157Z,0.74
2023-04-22T09:09:10.103Z,0.72
2023-04-22T09:10:10.059Z,0.73
2023-04-22T09:11:10.024Z,0.74
2023-04-22T09:12:10.000Z,0.73
2023-04-22T09:13:09.970Z,0.72
2023-04-22T09:14:09.908Z,0.71
2023-04-22T09:15:09.875Z,0.72
2023-04-22T09:16:09.874Z,0.72
2023-04-22T09:17:09.796Z,0.72
2023-04-22T09:18:09.761Z,0.73
2023-04-22T09:19:09.722Z,0.74
2023-04-22T09:20:09.703Z,0.73
2023-04-22T09:21:09.712Z,0.72
2023-04-22T09:22:09.712Z,0.72
2023-04-22T09:23:09.705Z,0.72
2023-04-22T09:24:09.711Z,0.73
2023-04-22T09:25:09.694Z,0.72
2023-04-22T09:26:09.715Z,0.72
2023-04-22T09:27:09.710Z,0.73
2023-04-22T09:28:09.724Z,0.72
2023-04-22T09:29:09.714Z,0.71
2023-04-22T09:30:09.718Z,0.71
2023-04-22T09:31:09.714Z,0.69
2023-04-22T09:32:09.739Z,0.71
2023-04-22T09:33:09.778Z,0.73
2023-04-22T09:34:09.690Z,0.71
2023-04-22T09:35:09.696Z,0.71
2023-04-22T09:36:09.660Z,0.71
2023-04-22T09:37:09.630Z,0.71
2023-04-22T09:38:09.604Z,0.71
2023-04-22T09:39:09.559Z,0.71
2023-04-22T09:40:09.548Z,0.70
2023-04-22T09:41:09.504Z,0.71
2023-04-22T09:42:09.470Z,0.69
2023-04-22T09:43:09.521Z,0.69
2023-04-22T09:44:09.409Z,0.68
2023-04-22T09:45:09.378Z,0.69
2023-04-22T09:46:09.393Z,0.69
2023-04-22T09:47:09.300Z,0.68
2023-04-22T09:48:09.245Z,0.68
2023-04-22T09:49:09.230Z,0.68
2023-04-22T09:50:09.207Z,0.68
2023-04-22T09:51:09.203Z,0.68
2023-04-22T09:52:09.196Z,0.67
2023-04-22T09:53:09.195Z,0.67
2023-04-22T09:54:09.188Z,0.67
2023-04-22T09:55:09.149Z,0.68
2023-04-22T09:56:09.137Z,0.67
2023-04-22T09:57:09.115Z,0.66
2023-04-22T09:58:09.121Z,0.66
2023-04-22T09:59:09.078Z,0.66
2023-04-22T10:00:09.086Z,0.66
2023-04-22T10:01:09.096Z,0.66
2023-04-22T10:02:09.052Z,0.66
2023-04-22T10:03:10.692Z,0.67
2023-04-22T10:04:09.031Z,0.66
2023-04-22T10:05:08.996Z,0.66
2023-04-22T10:06:08.993Z,0.66
2023-04-22T10:07:08.956Z,0.65
2023-04-22T10:08:09.029Z,0.68
2023-04-22T10:09:09.495Z,0.67
2023-04-22T10:10:08.983Z,0.66
2023-04-22T10:11:08.926Z,0.66
2023-04-22T10:12:08.900Z,0.66
2023-04-22T10:13:08.878Z,0.66
2023-04-22T10:14:08.866Z,0.67
2023-04-22T10:15:08.849Z,0.66
2023-04-22T10:16:08.843Z,0.64
2023-04-22T10:17:08.913Z,0.65
2023-04-22T10:18:08.841Z,0.64
2023-04-22T10:19:08.849Z,0.64
2023-04-22T10:20:08.850Z,0.66
2023-04-22T10:21:08.889Z,0.64
2023-04-22T10:22:08.889Z,0.64
2023-04-22T10:23:08.907Z,0.64
2023-04-22T10:24:08.905Z,0.63
2023-04-22T10:25:08.917Z,0.63
2023-04-22T10:26:08.951Z,0.63
2023-04-22T10:27:08.955Z,0.64
2023-04-22T10:28:08.955Z,0.62
2023-04-22T10:29:08.954Z,0.63
2023-04-22T10:30:08.960Z,0.63
2023-04-22T10:31:08.969Z,0.61
2023-04-22T10:32:10.639Z,0.61
2023-04-22T10:33:08.944Z,0.60
2023-04-22T10:34:08.961Z,0.61
2023-04-22T10:35:08.976Z,0.59
2023-04-22T10:36:08.947Z,0.60
2023-04-22T10:37:08.917Z,0.60
2023-04-22T10:38:08.910Z,0.60
2023-04-22T10:39:08.914Z,0.58
2023-04-22T10:40:08.894Z,0.58
2023-04-22T10:41:08.872Z,0.58
2023-04-22T10:42:08.858Z,0.58
2023-04-22T10:43:08.838Z,0.60
2023-04-22T10:44:08.839Z,0.59
2023-04-22T10:45:08.774Z,0.59
2023-04-22T10:46:08.803Z,0.59
2023-04-22T10:47:08.753Z,0.59
2023-04-22T10:48:08.744Z,0.58
2023-04-22T10:49:08.857Z,0.59
2023-04-22T10:50:08.715Z,0.58
2023-04-22T10:51:08.730Z,0.57
2023-04-22T10:52:08.755Z,0.57
2023-04-22T10:53:08.742Z,0.56
2023-04-22T10:54:08.702Z,0.56
2023-04-22T10:55:08.670Z,0.56
2023-04-22T10:56:08.637Z,0.57
2023-04-22T10:57:08.614Z,0.56
2023-04-22T10:58:08.547Z,0.57
2023-04-22T10:59:08.514Z,0.56
2023-04-22T11:00:08.476Z,0.54
2023-04-22T11:01:08.484Z,0.55
2023-04-22T11:02:08.432Z,0.55
2023-04-22T11:03:08.471Z,0.53
2023-04-22T11:04:08.367Z,0.54
2023-04-22T11:05:08.289Z,0.55
2023-04-22T11:06:08.251Z,0.53
2023-04-22T11:07:08.217Z,0.54
2023-04-22T11:08:08.218Z,0.53
2023-04-22T11:09:08.234Z,0.52
2023-04-22T11:10:08.204Z,0.52
2023-04-22T11:11:08.197Z,0.50
2023-04-22T11:12:08.215Z,0.50
2023-04-22T11:13:08.165Z,0.51
2023-04-22T11:14:08.115Z,0.51
2023-04-22T11:15:08.085Z,0.51
2023-04-22T11:16:08.093Z,0.51
2023-04-22T11:17:08.010Z,0.52
2023-04-22T11:18:07.968Z,0.51
2023-04-22T11:19:07.940Z,0.52
2023-04-22T11:20:07.911Z,0.52
2023-04-22T11:21:07.880Z,0.52
2023-04-22T11:22:07.845Z,0.52
2023-04-22T11:23:07.806Z,0.52
2023-04-22T11:24:07.811Z,0.53
2023-04-22T11:25:07.808Z,0.52
2023-04-22T11:26:07.812Z,0.52
2023-04-22T11:27:07.799Z,0.52
2023-04-22T11:28:07.811Z,0.51
2023-04-22T11:29:07.810Z,0.51
2023-04-22T11:30:07.796Z,0.51
2023-04-22T11:31:07.858Z,0.50
2023-04-22T11:32:07.839Z,0.50
2023-04-22T11:33:07.876Z,0.51
2023-04-22T11:34:07.890Z,0.52
2023-04-22T11:35:07.924Z,0.51
2023-04-22T11:36:07.943Z,0.51
2023-04-22T11:37:07.893Z,0.51
2023-04-22T11:38:07.853Z,0.51
2023-04-22T11:39:07.816Z,0.52
2023-04-22T11:40:28.151Z,0.52
2023-04-22T11:41:08.744Z,0.51
2023-04-22T11:42:07.697Z,0.51
2023-04-22T11:43:07.690Z,0.51
2023-04-22T11:44:07.644Z,0.52
2023-04-22T11:45:07.583Z,0.50
2023-04-22T11:46:07.596Z,0.50
2023-04-22T11:47:07.577Z,0.51
2023-04-22T11:48:07.470Z,0.51
2023-04-22T11:49:07.423Z,0.50
2023-04-22T11:50:07.372Z,0.51
2023-04-22T11:51:07.347Z,0.50
2023-04-22T11:52:07.334Z,0.51
2023-04-22T11:53:07.364Z,0.51
2023-04-22T11:54:07.379Z,0.52
2023-04-22T11:55:07.378Z,0.50
2023-04-22T11:56:07.398Z,0.52
2023-04-22T11:57:07.406Z,0.53
2023-04-22T11:58:07.418Z,0.53
2023-04-22T11:59:07.381Z,0.52
2023-04-22T12:00:07.368Z,0.52
2023-04-22T12:01:07.342Z,0.51
2023-04-22T12:02:07.468Z,0.51
2023-04-22T12:03:07.525Z,0.51
2023-04-22T12:04:07.459Z,0.51
2023-04-22T12:05:07.425Z,0.50
2023-04-22T12:06:07.419Z,0.51
2023-04-22T12:07:07.421Z,0.51
2023-04-22T12:08:07.434Z,0.51
2023-04-22T12:09:07.454Z,0.52
2023-04-22T12:10:07.502Z,0.53
2023-04-22T12:11:07.496Z,0.52
2023-04-22T12:12:07.483Z,0.51
2023-04-22T12:13:07.468Z,0.51
2023-04-22T12:14:07.457Z,0.52
2023-04-22T12:15:07.440Z,0.52
2023-04-22T12:16:07.442Z,0.54
2023-04-22T12:17:07.446Z,0.53
2023-04-22T12:18:07.348Z,0.50
2023-04-22T12:19:07.312Z,0.51
2023-04-22T12:20:07.275Z,0.50
2023-04-22T12:21:07.297Z,0.50
2023-04-22T12:22:07.197Z,0.50
2023-04-22T12:23:07.147Z,0.52
2023-04-22T12:24:07.116Z,0.52
2023-04-22T12:25:07.070Z,0.52
2023-04-22T12:26:07.033Z,0.52
2023-04-22T12:27:06.985Z,0.51
2023-04-22T12:28:06.944Z,0.52
2023-04-22T12:29:06.918Z,0.51
2023-04-22T12:30:06.865Z,0.51
2023-04-22T12:31:06.874Z,0.52
2023-04-22T12:32:06.780Z,0.51
2023-04-22T12:33:06.764Z,0.50
2023-04-22T12:34:06.800Z,0.52
2023-04-22T12:35:06.797Z,0.53
2023-04-22T12:36:06.831Z,0.54
2023-04-22T12:37:06.819Z,0.51
2023-04-22T12:38:06.842Z,0.53
2023-04-22T12:39:06.845Z,0.54
2023-04-22T12:40:06.826Z,0.54
2023-04-22T12:41:06.833Z,0.54
2023-04-22T12:42:06.843Z,0.55
2023-04-22T12:43:06.838Z,0.54
2023-04-22T12:44:06.793Z,0.54
2023-04-22T12:45:06.741Z,0.55
2023-04-22T12:46:06.775Z,0.55
2023-04-22T12:47:06.664Z,0.55
2023-04-22T12:48:06.620Z,0.57
2023-04-22T12:49:06.566Z,0.58
2023-04-22T12:50:06.529Z,0.57
2023-04-22T12:51:06.520Z,0.58
2023-04-22T12:52:06.464Z,0.57
2023-04-22T12:53:06.489Z,0.56
2023-04-22T12:54:06.515Z,0.57
2023-04-22T12:55:06.552Z,0.57
2023-04-22T12:56:06.587Z,0.58
2023-04-22T12:57:06.610Z,0.59
2023-04-22T12:58:06.624Z,0.59
2023-04-22T12:59:06.657Z,0.60
2023-04-22T13:00:06.690Z,0.58
2023-04-22T13:01:06.719Z,0.59
2023-04-22T13:02:06.875Z,0.57
2023-04-22T13:03:06.856Z,0.58
2023-04-22T13:04:07.005Z,0.59
2023-04-22T13:05:06.830Z,0.60
2023-04-22T13:06:06.857Z,0.61
2023-04-22T13:07:06.874Z,0.60
2023-04-22T13:08:08.041Z,0.64
2023-04-22T13:09:06.935Z,0.63
2023-04-22T13:10:06.958Z,0.63
2023-04-22T13:11:07.013Z,0.64
2023-04-22T13:12:07.023Z,0.65
2023-04-22T13:13:17.731Z,0.64
2023-04-22T13:14:07.998Z,0.64
2023-04-22T13:15:06.955Z,0.64
2023-04-22T13:16:06.962Z,0.64
2023-04-22T13:17:06.869Z,0.63
2023-04-22T13:18:06.890Z,0.62
2023-04-22T13:19:06.787Z,0.62